Time;durP1;ratioP1;P1;durP2;ratioP2;P2;SDS_P1;SDS_P2;PMS_P1;PMS_P2;Temp;Humidity;BMP_temperature;BMP_pressure;BME280_temperature;BME280_humidity;BME280_pressure;Samples;Min_cycle;Max_cycle;Signal;HPM_P1;HPM_P2
2023/06/30 00:01:48;;;;;;;0.2;0;;;;;;;;;;;;;-68
2023/06/30 00:02:46;;;;;;;;;;;;;;;14.11;63.03418;101598.8;;;;-68
2023/06/30 00:07:45;;;;;;;;;;;;;;;14.03;63.05469;101600.2;;;;-67
2023/06/30 00:12:44;;;;;;;;;;;;;;;13.98;63.08301;101602.7;;;;-68
2023/06/30 00:17:44;;;;;;;;;;;;;;;13.9;62.95801;101598.4;;;;-68
2023/06/30 00:22:44;;;;;;;;;;;;;;;13.86;63.06445;101596.7;;;;-67
2023/06/30 00:27:44;;;;;;;;;;;;;;;13.78;63.04297;101593.7;;;;-69
2023/06/30 00:31:49;;;;;;;0.2;0.1;;;;;;;;;;;;;-71
2023/06/30 00:32:44;;;;;;;;;;;;;;;13.68;63.22949;101587.8;;;;-68
2023/06/30 00:37:45;;;;;;;;;;;;;;;13.66;62.93555;101584.6;;;;-68
2023/06/30 00:42:44;;;;;;;;;;;;;;;13.57;63.03418;101581.4;;;;-68
2023/06/30 00:47:44;;;;;;;;;;;;;;;13.53;63.11914;101578.7;;;;-68
2023/06/30 00:52:47;;;;;;;;;;;;;;;13.5;63.0127;101573.3;;;;-69
2023/06/30 00:57:44;;;;;;;;;;;;;;;13.44;62.94922;101575.5;;;;-67
2023/06/30 01:01:56;;;;;;;0.2;0;;;;;;;;;;;;;-69
2023/06/30 01:02:48;;;;;;;;;;;;;;;13.37;62.99609;101569.8;;;;-70
2023/06/30 01:07:52;;;;;;;;;;;;;;;13.33;63.10059;101566.9;;;;-69
2023/06/30 01:12:45;;;;;;;;;;;;;;;13.28;63.11719;101568.9;;;;-70
2023/06/30 01:17:50;;;;;;;;;;;;;;;13.2;63.18359;101568.2;;;;-69
2023/06/30 01:22:47;;;;;;;;;;;;;;;13.17;63.25684;101566.9;;;;-69
2023/06/30 01:27:44;;;;;;;;;;;;;;;13.14;62.99512;101563.6;;;;-69
2023/06/30 01:31:53;;;;;;;0.2;0.1;;;;;;;;;;;;;-68
2023/06/30 01:32:46;;;;;;;;;;;;;;;13.1;63.14648;101560.9;;;;-68
2023/06/30 01:37:44;;;;;;;;;;;;;;;13.04;62.98145;101561.1;;;;-69
2023/06/30 01:42:44;;;;;;;;;;;;;;;12.99;63.27539;101562.3;;;;-68
2023/06/30 01:47:44;;;;;;;;;;;;;;;12.97;63.06152;101557;;;;-67
2023/06/30 01:52:44;;;;;;;;;;;;;;;12.95;62.93457;101546.7;;;;-68
2023/06/30 01:57:44;;;;;;;;;;;;;;;12.9;63.11816;101549.6;;;;-69
2023/06/30 02:01:55;;;;;;;0.2;0.1;;;;;;;;;;;;;-69
2023/06/30 02:02:44;;;;;;;;;;;;;;;12.87;63.18066;101552.7;;;;-69
2023/06/30 02:07:44;;;;;;;;;;;;;;;12.82;63.09473;101553.1;;;;-68
2023/06/30 02:12:44;;;;;;;;;;;;;;;12.76;63.01855;101546.9;;;;-68
2023/06/30 02:17:44;;;;;;;;;;;;;;;12.73;63.04785;101547.1;;;;-69
2023/06/30 02:22:44;;;;;;;;;;;;;;;12.74;62.87207;101545.9;;;;-68
2023/06/30 02:27:45;;;;;;;;;;;;;;;12.68;62.88379;101543.6;;;;-69
2023/06/30 02:31:57;;;;;;;0.2;0.1;;;;;;;;;;;;;-69
2023/06/30 02:32:45;;;;;;;;;;;;;;;12.64;62.91406;101540.5;;;;-68
2023/06/30 02:37:44;;;;;;;;;;;;;;;12.58;62.95898;101540.7;;;;-69
2023/06/30 02:42:44;;;;;;;;;;;;;;;12.53;62.84082;101541;;;;-69
2023/06/30 02:47:44;;;;;;;;;;;;;;;12.5;62.91504;101540.4;;;;-69
2023/06/30 02:52:44;;;;;;;;;;;;;;;12.45;62.95215;101541.1;;;;-68
2023/06/30 02:57:44;;;;;;;;;;;;;;;12.42;62.88086;101540.6;;;;-69
2023/06/30 03:01:59;;;;;;;0.3;0.1;;;;;;;;;;;;;-69
2023/06/30 03:02:51;;;;;;;;;;;;;;;12.39;63.04492;101536.2;;;;-68
2023/06/30 03:07:44;;;;;;;;;;;;;;;12.37;62.77441;101538.7;;;;-69
2023/06/30 03:12:44;;;;;;;;;;;;;;;12.33;63.04688;101533.6;;;;-69
2023/06/30 03:17:44;;;;;;;;;;;;;;;12.26;63.16992;101533.8;;;;-68
2023/06/30 03:22:48;;;;;;;;;;;;;;;12.28;62.87109;101534.1;;;;-69
2023/06/30 03:27:44;;;;;;;;;;;;;;;12.24;63.02246;101538.6;;;;-68
2023/06/30 03:32:01;;;;;;;0.2;0.1;;;;;;;;;;;;;-68
2023/06/30 03:32:44;;;;;;;;;;;;;;;12.2;63.0166;101533.4;;;;-69
2023/06/30 03:37:44;;;;;;;;;;;;;;;12.17;63.02441;101534.7;;;;-68
2023/06/30 03:42:44;;;;;;;;;;;;;;;12.11;63.10449;101527.5;;;;-68
2023/06/30 03:47:45;;;;;;;;;;;;;;;12.15;63.04395;101529.9;;;;-67
2023/06/30 03:52:44;;;;;;;;;;;;;;;12.17;62.85645;101535.6;;;;-69
2023/06/30 03:57:44;;;;;;;;;;;;;;;12.18;62.8584;101541.9;;;;-68
2023/06/30 04:02:02;;;;;;;0.2;0.1;;;;;;;;;;;;;-68
2023/06/30 04:02:44;;;;;;;;;;;;;;;12.19;62.92676;101539.3;;;;-69
2023/06/30 04:07:44;;;;;;;;;;;;;;;12.24;62.82227;101547.4;;;;-68
2023/06/30 04:12:45;;;;;;;;;;;;;;;12.25;63.01367;101536.8;;;;-68
2023/06/30 04:17:44;;;;;;;;;;;;;;;12.36;63.02832;101537.3;;;;-69
2023/06/30 04:22:44;;;;;;;;;;;;;;;12.4;62.96777;101542.7;;;;-67
2023/06/30 04:27:44;;;;;;;;;;;;;;;12.45;62.98535;101533.7;;;;-68
2023/06/30 04:32:05;;;;;;;0.2;0.1;;;;;;;;;;;;;-68
2023/06/30 04:32:44;;;;;;;;;;;;;;;12.51;62.91602;101537;;;;-68
2023/06/30 04:37:47;;;;;;;;;;;;;;;12.64;62.75684;101539;;;;-67
2023/06/30 04:42:44;;;;;;;;;;;;;;;12.7;62.87695;101534.3;;;;-69
2023/06/30 04:47:44;;;;;;;;;;;;;;;12.77;62.74023;101534.6;;;;-70
2023/06/30 04:52:44;;;;;;;;;;;;;;;12.86;62.67578;101535.3;;;;-68
2023/06/30 04:57:44;;;;;;;;;;;;;;;12.99;62.4707;101539;;;;-69
2023/06/30 05:02:06;;;;;;;0.3;0.2;;;;;;;;;;;;;-69
2023/06/30 05:02:44;;;;;;;;;;;;;;;13.08;62.49512;101537.2;;;;-69
2023/06/30 05:07:45;;;;;;;;;;;;;;;13.16;62.54004;101545.4;;;;-69
2023/06/30 05:12:44;;;;;;;;;;;;;;;13.29;62.18945;101543.9;;;;-69
2023/06/30 05:17:44;;;;;;;;;;;;;;;13.42;62.22949;101549.2;;;;-69
2023/06/30 05:22:44;;;;;;;;;;;;;;;13.61;62.79297;101549.6;;;;-68
2023/06/30 05:27:44;;;;;;;;;;;;;;;13.92;63.5332;101548.4;;;;-69
2023/06/30 05:32:08;;;;;;;0.2;0.1;;;;;;;;;;;;;-69
2023/06/30 05:32:44;;;;;;;;;;;;;;;14.39;61.99707;101548.1;;;;-70
2023/06/30 05:37:44;;;;;;;;;;;;;;;15.12;61.00781;101537.8;;;;-68
2023/06/30 05:42:45;;;;;;;;;;;;;;;15.78;59.13965;101537.9;;;;-69
2023/06/30 05:47:44;;;;;;;;;;;;;;;16.55;58.2041;101541.8;;;;-70
2023/06/30 05:52:44;;;;;;;;;;;;;;;17.12;57.28418;101532.5;;;;-68
2023/06/30 05:57:44;;;;;;;;;;;;;;;17.57;56.33496;101536.5;;;;-69
2023/06/30 06:02:10;;;;;;;0.2;0.1;;;;;;;;;;;;;-68
2023/06/30 06:02:44;;;;;;;;;;;;;;;18.1;55.39453;101533;;;;-68
2023/06/30 06:07:44;;;;;;;;;;;;;;;18.64;54.9043;101529.6;;;;-69
2023/06/30 06:12:45;;;;;;;;;;;;;;;19.19;54.19922;101528.5;;;;-69
2023/06/30 06:17:44;;;;;;;;;;;;;;;19.7;53.52051;101525.3;;;;-69
2023/06/30 06:22:53;;;;;;;;;;;;;;;20.15;53.00488;101523.6;;;;-69
2023/06/30 06:27:44;;;;;;;;;;;;;;;20.54;52.45801;101525.8;;;;-68
2023/06/30 06:32:12;;;;;;;0.2;0.1;;;;;;;;;;;;;-69
2023/06/30 06:32:44;;;;;;;;;;;;;;;20.96;51.94727;101530.8;;;;-68
2023/06/30 06:37:44;;;;;;;;;;;;;;;21.35;51.62695;101538;;;;-68
2023/06/30 06:42:45;;;;;;;;;;;;;;;21.64;51.04199;101533.9;;;;-68
2023/06/30 06:47:55;;;;;;;;;;;;;;;21.95;51.12305;101527.9;;;;-69
2023/06/30 06:52:45;;;;;;;;;;;;;;;22.28;50.53027;101520.2;;;;-68
2023/06/30 06:57:48;;;;;;;;;;;;;;;22.38;50.77148;101525.7;;;;-70
2023/06/30 07:02:15;;;;;;;0.2;0;;;;;;;;;;;;;-68
2023/06/30 07:02:44;;;;;;;;;;;;;;;22.48;50.50684;101534.8;;;;-69
2023/06/30 07:07:44;;;;;;;;;;;;;;;22.35;50.62012;101532.1;;;;-68
2023/06/30 07:12:44;;;;;;;;;;;;;;;22.29;51.34668;101528.2;;;;-69
2023/06/30 07:17:44;;;;;;;;;;;;;;;22.55;50.74414;101532;;;;-68
2023/06/30 07:22:44;;;;;;;;;;;;;;;22.48;50.63379;101535.9;;;;-70
2023/06/30 07:27:52;;;;;;;;;;;;;;;22.33;51.37207;101533.1;;;;-68
2023/06/30 07:32:19;;;;;;;0.3;0.1;;;;;;;;;;;;;-69
2023/06/30 07:32:45;;;;;;;;;;;;;;;22.25;51.07617;101521.7;;;;-68
2023/06/30 07:37:44;;;;;;;;;;;;;;;22.12;51.70313;101517.1;;;;-69
2023/06/30 07:42:44;;;;;;;;;;;;;;;22.62;50.98145;101517.5;;;;-69
2023/06/30 07:47:48;;;;;;;;;;;;;;;23.13;49.71875;101515.4;;;;-69
2023/06/30 07:52:45;;;;;;;;;;;;;;;23.59;48.36621;101512.7;;;;-68
2023/06/30 07:57:44;;;;;;;;;;;;;;;23.78;47.83398;101514.5;;;;-70
2023/06/30 08:02:22;;;;;;;0.4;0.2;;;;;;;;;;;;;-69
2023/06/30 08:02:44;;;;;;;;;;;;;;;23.83;47.89746;101509.6;;;;-70
2023/06/30 08:07:45;;;;;;;;;;;;;;;23.96;47.6582;101505.9;;;;-68
2023/06/30 08:12:44;;;;;;;;;;;;;;;24.36;46.95117;101508.1;;;;-70
2023/06/30 08:17:44;;;;;;;;;;;;;;;24.22;46.64746;101504.7;;;;-69
2023/06/30 08:22:44;;;;;;;;;;;;;;;24.02;47.11133;101500.7;;;;-70
2023/06/30 08:27:44;;;;;;;;;;;;;;;23.9;47.22559;101499.7;;;;-68
2023/06/30 08:32:27;;;;;;;0.2;0;;;;;;;;;;;;;-69
2023/06/30 08:32:44;;;;;;;;;;;;;;;23.75;46.92188;101499.6;;;;-69
2023/06/30 08:37:44;;;;;;;;;;;;;;;23.87;46.96973;101502.7;;;;-70
2023/06/30 08:42:47;;;;;;;;;;;;;;;24.13;46.63867;101493.4;;;;-69
2023/06/30 08:47:44;;;;;;;;;;;;;;;24.14;46.21289;101487.1;;;;-69
2023/06/30 08:52:44;;;;;;;;;;;;;;;24.28;45.92871;101488.9;;;;-68
2023/06/30 08:57:45;;;;;;;;;;;;;;;24.32;45.77051;101480.3;;;;-69
2023/06/30 09:02:33;;;;;;;0.2;0;;;;;;;;;;;;;-69
2023/06/30 09:02:45;;;;;;;;;;;;;;;24.79;45.31055;101473.7;;;;-68
2023/06/30 09:07:46;;;;;;;;;;;;;;;25.25;44.4668;101468.1;;;;-67
2023/06/30 09:12:46;;;;;;;;;;;;;;;25.22;43.78223;101472.4;;;;-68
2023/06/30 09:17:46;;;;;;;;;;;;;;;25.12;44.16504;101468.8;;;;-68
2023/06/30 09:22:47;;;;;;;;;;;;;;;25.29;44.18066;101467.5;;;;-69
2023/06/30 09:27:44;;;;;;;;;;;;;;;25.56;43.61719;101465.2;;;;-74
2023/06/30 09:32:36;;;;;;;0.2;0.1;;;;;;;;;;;;;-73
2023/06/30 09:32:47;;;;;;;;;;;;;;;25.41;43.1748;101457.1;;;;-75
2023/06/30 09:37:48;;;;;;;;;;;;;;;25.45;43.6416;101463.4;;;;-72
2023/06/30 09:42:45;;;;;;;;;;;;;;;25.49;42.69531;101456.1;;;;-73
2023/06/30 09:47:44;;;;;;;;;;;;;;;25.48;42.9502;101457.6;;;;-72
2023/06/30 09:52:44;;;;;;;;;;;;;;;25.27;43.27734;101457.1;;;;-73
2023/06/30 09:57:46;;;;;;;;;;;;;;;25.02;43.14941;101449.7;;;;-71
2023/06/30 10:02:40;;;;;;;0.2;0;;;;;;;;;;;;;-73
2023/06/30 10:02:55;;;;;;;;;;;;;;;25.06;43.2793;101452.1;;;;-71
2023/06/30 10:07:44;;;;;;;;;;;;;;;25.2;43.15527;101445.7;;;;-72
2023/06/30 10:12:46;;;;;;;;;;;;;;;25.6;42.39551;101444.5;;;;-69
2023/06/30 10:17:46;;;;;;;;;;;;;;;26.01;42.5127;101441.2;;;;-68
2023/06/30 10:22:47;;;;;;;;;;;;;;;26.37;41.57422;101436.2;;;;-70
2023/06/30 10:27:45;;;;;;;;;;;;;;;26.62;41.12109;101436.1;;;;-68
2023/06/30 10:32:44;;;;;;;0.2;0;;;;;;;;;;;;;-70
2023/06/30 10:32:54;;;;;;;;;;;;;;;26.77;40.49609;101425.1;;;;-70
2023/06/30 10:37:45;;;;;;;;;;;;;;;26.89;40.43652;101426;;;;-69
2023/06/30 10:42:45;;;;;;;;;;;;;;;26.88;40.85352;101424.1;;;;-69
2023/06/30 10:47:50;;;;;;;;;;;;;;;26.8;40.23145;101424;;;;-68
2023/06/30 10:52:52;;;;;;;;;;;;;;;26.79;40.54395;101417.6;;;;-69
2023/06/30 10:57:44;;;;;;;;;;;;;;;26.92;40.5791;101418.5;;;;-69
2023/06/30 11:02:50;;;;;;;;;;;;;;;27.23;40.55957;101405.9;;;;-69
2023/06/30 11:03:03;;;;;;;0.2;0;;;;;;;;;;;;;-69
2023/06/30 11:07:44;;;;;;;;;;;;;;;27.43;41.14746;101398.8;;;;-69
2023/06/30 11:13:00;;;;;;;;;;;;;;;27.55;40.22754;101384.2;;;;-68
2023/06/30 11:17:55;;;;;;;;;;;;;;;27.57;40.60254;101373.3;;;;-69
2023/06/30 11:22:45;;;;;;;;;;;;;;;27.67;40.44922;101379.4;;;;-70
2023/06/30 11:27:44;;;;;;;;;;;;;;;27.62;41.61914;101370.3;;;;-68
2023/06/30 11:32:45;;;;;;;;;;;;;;;27.58;41.40625;101365.1;;;;-69
2023/06/30 11:32:58;;;;;;;0.1;0;;;;;;;;;;;;;-69
2023/06/30 11:37:52;;;;;;;;;;;;;;;27.66;42.51855;101371;;;;-69
2023/06/30 11:42:48;;;;;;;;;;;;;;;27.73;42.04785;101363.2;;;;-70
2023/06/30 11:47:48;;;;;;;;;;;;;;;27.8;42.72949;101362.1;;;;-68
2023/06/30 11:52:44;;;;;;;;;;;;;;;28;42.80566;101358.9;;;;-69
2023/06/30 11:57:46;;;;;;;;;;;;;;;28.25;41.97949;101347.8;;;;-68
2023/06/30 12:02:50;;;;;;;;;;;;;;;28.14;42.08594;101340.4;;;;-67
2023/06/30 12:03:01;;;;;;;0.2;0;;;;;;;;;;;;;-67
2023/06/30 12:07:46;;;;;;;;;;;;;;;28;41.16406;101337.6;;;;-68
2023/06/30 12:12:44;;;;;;;;;;;;;;;28.08;42.18457;101333.3;;;;-68
2023/06/30 12:17:46;;;;;;;;;;;;;;;27.7;41.67285;101331.9;;;;-67
2023/06/30 12:22:45;;;;;;;;;;;;;;;27.47;41.72168;101323.2;;;;-69
2023/06/30 12:27:45;;;;;;;;;;;;;;;26.14;41.5293;101323.2;;;;-69
2023/06/30 12:32:45;;;;;;;;;;;;;;;26.84;41.32715;101306.5;;;;-68
2023/06/30 12:33:04;;;;;;;0.1;0;;;;;;;;;;;;;-68
2023/06/30 12:37:48;;;;;;;;;;;;;;;26.9;41.13477;101302.1;;;;-68
2023/06/30 12:42:48;;;;;;;;;;;;;;;27.07;42.06836;101295.5;;;;-70
2023/06/30 12:47:44;;;;;;;;;;;;;;;27.18;41.125;101292.6;;;;-68
2023/06/30 12:52:44;;;;;;;;;;;;;;;27.1;42.14063;101294.2;;;;-69
2023/06/30 12:57:44;;;;;;;;;;;;;;;26.88;41.24902;101297.7;;;;-69
2023/06/30 13:02:44;;;;;;;;;;;;;;;27.1;41.43164;101286.9;;;;-69
2023/06/30 13:03:10;;;;;;;0.2;0;;;;;;;;;;;;;-69
2023/06/30 13:07:44;;;;;;;;;;;;;;;27.11;40.30566;101284.4;;;;-69
2023/06/30 13:12:47;;;;;;;;;;;;;;;27.46;40.24316;101284.5;;;;-67
2023/06/30 13:17:46;;;;;;;;;;;;;;;27.37;41.375;101271.2;;;;-69
2023/06/30 13:22:44;;;;;;;;;;;;;;;27.65;41.62207;101263.2;;;;-69
2023/06/30 13:27:46;;;;;;;;;;;;;;;27.57;41.60352;101263.3;;;;-70
2023/06/30 13:32:44;;;;;;;;;;;;;;;27.51;40.02637;101262.5;;;;-69
2023/06/30 13:33:13;;;;;;;0.2;0;;;;;;;;;;;;;-69
2023/06/30 13:37:46;;;;;;;;;;;;;;;27.61;41.4668;101266.7;;;;-69
2023/06/30 13:42:44;;;;;;;;;;;;;;;27.89;40.7002;101257.5;;;;-69
2023/06/30 13:47:46;;;;;;;;;;;;;;;27.86;41.0127;101247.9;;;;-68
2023/06/30 13:52:44;;;;;;;;;;;;;;;28.24;39.2168;101245.4;;;;-70
2023/06/30 13:57:45;;;;;;;;;;;;;;;28.23;39.85742;101241.4;;;;-69
2023/06/30 14:02:44;;;;;;;;;;;;;;;28.45;39.70215;101236.4;;;;-67
2023/06/30 14:03:19;;;;;;;0.2;0;;;;;;;;;;;;;-70
2023/06/30 14:07:44;;;;;;;;;;;;;;;28.47;38.24512;101236.8;;;;-69
2023/06/30 14:12:44;;;;;;;;;;;;;;;28.19;37.32324;101238.1;;;;-68
2023/06/30 14:17:44;;;;;;;;;;;;;;;28.16;38.7666;101239.8;;;;-70
2023/06/30 14:22:44;;;;;;;;;;;;;;;28.22;37.97949;101240.1;;;;-68
2023/06/30 14:27:44;;;;;;;;;;;;;;;27.87;37.41406;101238.3;;;;-68
2023/06/30 14:32:44;;;;;;;;;;;;;;;27.53;38.63281;101235.8;;;;-70
2023/06/30 14:33:23;;;;;;;0.2;0;;;;;;;;;;;;;-68
2023/06/30 14:37:44;;;;;;;;;;;;;;;27.38;38.08398;101236.3;;;;-71
2023/06/30 14:42:44;;;;;;;;;;;;;;;27.27;37.53906;101238.7;;;;-68
2023/06/30 14:47:44;;;;;;;;;;;;;;;27.02;38.29785;101241.5;;;;-69
2023/06/30 14:52:44;;;;;;;;;;;;;;;26.86;38.69043;101231.4;;;;-69
2023/06/30 14:57:45;;;;;;;;;;;;;;;26.55;38.23438;101228.6;;;;-71
2023/06/30 15:02:44;;;;;;;;;;;;;;;26.26;38.19824;101232.7;;;;-69
2023/06/30 15:03:28;;;;;;;0.2;0;;;;;;;;;;;;;-68
2023/06/30 15:07:44;;;;;;;;;;;;;;;25.98;37.79199;101226.3;;;;-68
2023/06/30 15:12:44;;;;;;;;;;;;;;;25.8;38.89063;101221.3;;;;-69
2023/06/30 15:17:44;;;;;;;;;;;;;;;25.75;38.75879;101207.2;;;;-69
2023/06/30 15:22:44;;;;;;;;;;;;;;;25.93;38.29785;101199.8;;;;-68
2023/06/30 15:27:44;;;;;;;;;;;;;;;26.01;37.75977;101191.8;;;;-69
2023/06/30 15:32:44;;;;;;;;;;;;;;;25.96;37.98633;101198.4;;;;-68
2023/06/30 15:33:32;;;;;;;0.1;0;;;;;;;;;;;;;-70
2023/06/30 15:37:45;;;;;;;;;;;;;;;25.76;38.41016;101185.5;;;;-68
2023/06/30 15:42:44;;;;;;;;;;;;;;;25.56;38.34668;101190.4;;;;-69
2023/06/30 15:47:45;;;;;;;;;;;;;;;25.46;38.03711;101188.2;;;;-68
2023/06/30 15:52:44;;;;;;;;;;;;;;;25.36;38.72363;101188.2;;;;-69
2023/06/30 15:57:44;;;;;;;;;;;;;;;25.34;38.50195;101185.7;;;;-70
2023/06/30 16:02:46;;;;;;;;;;;;;;;25.15;38.44043;101179.6;;;;-71
2023/06/30 16:03:39;;;;;;;0.2;0;;;;;;;;;;;;;-70
2023/06/30 16:07:44;;;;;;;;;;;;;;;24.75;39.2959;101177.3;;;;-70
2023/06/30 16:12:47;;;;;;;;;;;;;;;24.76;39.04297;101159.7;;;;-69
2023/06/30 16:17:44;;;;;;;;;;;;;;;24.65;39.55371;101155.4;;;;-69
2023/06/30 16:22:45;;;;;;;;;;;;;;;24.51;39.44824;101158.3;;;;-70
2023/06/30 16:27:44;;;;;;;;;;;;;;;24.36;38.93848;101153.1;;;;-68
2023/06/30 16:32:44;;;;;;;;;;;;;;;24.13;39.41504;101144.9;;;;-70
2023/06/30 16:33:44;;;;;;;0.2;0;;;;;;;;;;;;;-69
2023/06/30 16:37:44;;;;;;;;;;;;;;;24.07;39.88379;101133.6;;;;-70
2023/06/30 16:42:45;;;;;;;;;;;;;;;23.96;39.64355;101139.5;;;;-68
2023/06/30 16:47:44;;;;;;;;;;;;;;;23.75;39.96973;101136.4;;;;-69
2023/06/30 16:52:47;;;;;;;;;;;;;;;23.6;39.74902;101128.1;;;;-70
2023/06/30 16:57:44;;;;;;;;;;;;;;;23.45;40.08203;101138.2;;;;-71
2023/06/30 17:02:44;;;;;;;;;;;;;;;22.99;40.59375;101127.1;;;;-68
2023/06/30 17:03:48;;;;;;;0.2;0;;;;;;;;;;;;;-68
2023/06/30 17:07:44;;;;;;;;;;;;;;;22.94;40.01367;101122.8;;;;-69
2023/06/30 17:12:44;;;;;;;;;;;;;;;22.68;40.12793;101115.1;;;;-69
2023/06/30 17:17:45;;;;;;;;;;;;;;;22.62;40.27344;101115.8;;;;-68
2023/06/30 17:22:44;;;;;;;;;;;;;;;22.52;40.18262;101117.4;;;;-70
2023/06/30 17:27:46;;;;;;;;;;;;;;;22.33;40.86914;101121;;;;-69
2023/06/30 17:32:44;;;;;;;;;;;;;;;22.23;41.22559;101113.7;;;;-69
2023/06/30 17:33:49;;;;;;;0.2;0;;;;;;;;;;;;;-70
2023/06/30 17:37:44;;;;;;;;;;;;;;;22.25;41.2627;101113.5;;;;-70
2023/06/30 17:42:44;;;;;;;;;;;;;;;22.22;41.25977;101108.1;;;;-69
2023/06/30 17:47:44;;;;;;;;;;;;;;;22.16;41.69238;101108.3;;;;-69
2023/06/30 17:52:44;;;;;;;;;;;;;;;22.08;41.94727;101101.8;;;;-69
2023/06/30 17:57:44;;;;;;;;;;;;;;;21.95;42.69336;101100.6;;;;-67
2023/06/30 18:02:49;;;;;;;;;;;;;;;21.86;42.69629;101099.6;;;;-69
2023/06/30 18:03:52;;;;;;;0.2;0.1;;;;;;;;;;;;;-69
2023/06/30 18:07:44;;;;;;;;;;;;;;;21.76;42.89453;101094.1;;;;-68
2023/06/30 18:12:44;;;;;;;;;;;;;;;21.59;43.24512;101093.5;;;;-68
2023/06/30 18:17:44;;;;;;;;;;;;;;;21.45;43.44922;101085.6;;;;-69
2023/06/30 18:22:45;;;;;;;;;;;;;;;21.38;43.06445;101080.6;;;;-69
2023/06/30 18:27:44;;;;;;;;;;;;;;;21.34;43.85156;101091.4;;;;-68
2023/06/30 18:32:47;;;;;;;;;;;;;;;21.25;44.18555;101083.3;;;;-68
2023/06/30 18:33:56;;;;;;;0.2;0;;;;;;;;;;;;;-70
2023/06/30 18:37:44;;;;;;;;;;;;;;;21.21;44.56055;101077;;;;-69
2023/06/30 18:42:44;;;;;;;;;;;;;;;21.14;45.38867;101069.7;;;;-70
2023/06/30 18:47:46;;;;;;;;;;;;;;;21.04;47.33594;101063.4;;;;-71
2023/06/30 18:52:46;;;;;;;;;;;;;;;20.96;46.60645;101059.5;;;;-71
2023/06/30 18:57:44;;;;;;;;;;;;;;;20.88;46.23242;101062.1;;;;-69
2023/06/30 19:02:45;;;;;;;;;;;;;;;20.73;47.38379;101061.2;;;;-70
2023/06/30 19:04:00;;;;;;;0.2;0;;;;;;;;;;;;;-70
2023/06/30 19:07:44;;;;;;;;;;;;;;;20.57;47.70996;101053.9;;;;-70
2023/06/30 19:12:47;;;;;;;;;;;;;;;20.4;49.33691;101051.9;;;;-70
2023/06/30 19:17:44;;;;;;;;;;;;;;;20.43;48.66406;101040.5;;;;-69
2023/06/30 19:22:44;;;;;;;;;;;;;;;20.36;48.09766;101037.2;;;;-69
2023/06/30 19:27:44;;;;;;;;;;;;;;;20.24;49.15918;101029.8;;;;-69
2023/06/30 19:32:44;;;;;;;;;;;;;;;20.12;49.92285;101020.6;;;;-73
2023/06/30 19:34:03;;;;;;;0.2;0;;;;;;;;;;;;;-68
2023/06/30 19:37:44;;;;;;;;;;;;;;;19.98;50.6123;101016.4;;;;-68
2023/06/30 19:42:44;;;;;;;;;;;;;;;19.94;49.99219;101012.4;;;;-70
2023/06/30 19:47:44;;;;;;;;;;;;;;;19.88;50.81738;101016.7;;;;-70
2023/06/30 19:52:44;;;;;;;;;;;;;;;19.79;50.96777;101012.4;;;;-70
2023/06/30 19:57:44;;;;;;;;;;;;;;;19.7;50.95703;101015.6;;;;-71
2023/06/30 20:02:45;;;;;;;;;;;;;;;19.65;51.07617;100999.7;;;;-69
2023/06/30 20:04:07;;;;;;;0.4;0.2;;;;;;;;;;;;;-69
2023/06/30 20:07:44;;;;;;;;;;;;;;;19.58;51.58203;101003.6;;;;-73
2023/06/30 20:12:44;;;;;;;;;;;;;;;19.55;51.90918;100991.1;;;;-67
2023/06/30 20:17:44;;;;;;;;;;;;;;;19.5;51.98242;100987;;;;-70
2023/06/30 20:22:45;;;;;;;;;;;;;;;19.46;52.125;100972.6;;;;-67
2023/06/30 20:27:44;;;;;;;;;;;;;;;19.4;52.7793;100974;;;;-69
2023/06/30 20:32:47;;;;;;;;;;;;;;;19.36;53.01367;100959.6;;;;-69
2023/06/30 20:34:10;;;;;;;0.3;0.1;;;;;;;;;;;;;-69
2023/06/30 20:37:44;;;;;;;;;;;;;;;19.33;52.94141;100951.4;;;;-68
2023/06/30 20:42:44;;;;;;;;;;;;;;;19.28;53.4707;100945;;;;-69
2023/06/30 20:47:44;;;;;;;;;;;;;;;19.2;54.25684;100948.7;;;;-69
2023/06/30 20:52:44;;;;;;;;;;;;;;;19.21;54.25781;100938.3;;;;-69
2023/06/30 20:57:46;;;;;;;;;;;;;;;19.17;54.82227;100939.4;;;;-68
2023/06/30 21:02:44;;;;;;;;;;;;;;;19.14;55.18262;100928.3;;;;-71
2023/06/30 21:04:13;;;;;;;0.2;0;;;;;;;;;;;;;-69
2023/06/30 21:07:45;;;;;;;;;;;;;;;19.13;55.24902;100920.9;;;;-69
2023/06/30 21:12:44;;;;;;;;;;;;;;;19.1;55.3252;100919.3;;;;-69
2023/06/30 21:17:44;;;;;;;;;;;;;;;19.09;55.25684;100924.5;;;;-69
2023/06/30 21:22:45;;;;;;;;;;;;;;;19.02;56.31445;100914.5;;;;-69
2023/06/30 21:27:53;;;;;;;;;;;;;;;19.02;56.65625;100909.3;;;;-70
2023/06/30 21:32:44;;;;;;;;;;;;;;;18.95;57.68066;100910.1;;;;-68
2023/06/30 21:34:16;;;;;;;0.2;0.1;;;;;;;;;;;;;-68
2023/06/30 21:37:45;;;;;;;;;;;;;;;18.87;58.44238;100904.5;;;;-69
2023/06/30 21:42:45;;;;;;;;;;;;;;;18.78;59.16797;100892.7;;;;-69
2023/06/30 21:47:44;;;;;;;;;;;;;;;18.75;58.87988;100875.1;;;;-69
2023/06/30 21:52:44;;;;;;;;;;;;;;;18.68;59.41504;100873.5;;;;-69
2023/06/30 21:57:45;;;;;;;;;;;;;;;18.65;60.01172;100860.4;;;;-70
2023/06/30 22:02:44;;;;;;;;;;;;;;;18.59;59.56152;100856.4;;;;-69
2023/06/30 22:04:19;;;;;;;0.2;0.1;;;;;;;;;;;;;-68
2023/06/30 22:07:44;;;;;;;;;;;;;;;18.52;61.65039;100843.4;;;;-68
2023/06/30 22:12:44;;;;;;;;;;;;;;;18.51;61.35254;100847.5;;;;-67
2023/06/30 22:17:44;;;;;;;;;;;;;;;18.46;61.15234;100842.3;;;;-69
2023/06/30 22:22:44;;;;;;;;;;;;;;;18.35;63.15527;100831.4;;;;-68
2023/06/30 22:27:44;;;;;;;;;;;;;;;18.35;62.92676;100826.3;;;;-72
2023/06/30 22:32:44;;;;;;;;;;;;;;;18.23;63.56738;100818;;;;-69
2023/06/30 22:34:23;;;;;;;0.3;0.1;;;;;;;;;;;;;-70
2023/06/30 22:37:44;;;;;;;;;;;;;;;18.21;63.99512;100813.1;;;;-69
2023/06/30 22:42:44;;;;;;;;;;;;;;;18.14;64.22266;100807.6;;;;-71
2023/06/30 22:47:44;;;;;;;;;;;;;;;18.09;65.36816;100799.2;;;;-68
2023/06/30 22:52:44;;;;;;;;;;;;;;;18.04;65.01074;100788.7;;;;-69
2023/06/30 22:57:45;;;;;;;;;;;;;;;18.03;64.86133;100782.9;;;;-68
2023/06/30 23:02:44;;;;;;;;;;;;;;;17.97;65.2832;100771.5;;;;-67
2023/06/30 23:04:24;;;;;;;0.3;0.1;;;;;;;;;;;;;-69
2023/06/30 23:07:47;;;;;;;;;;;;;;;17.95;64.98633;100768.4;;;;-69
2023/06/30 23:12:44;;;;;;;;;;;;;;;17.93;65.92188;100761.1;;;;-68
2023/06/30 23:17:47;;;;;;;;;;;;;;;17.92;65.65918;100755.5;;;;-69
2023/06/30 23:22:50;;;;;;;;;;;;;;;17.9;65.74805;100758.4;;;;-70
2023/06/30 23:27:44;;;;;;;;;;;;;;;17.84;66.10059;100757.1;;;;-70
2023/06/30 23:32:45;;;;;;;;;;;;;;;17.77;67.5791;100749.9;;;;-69
2023/06/30 23:34:28;;;;;;;0.2;0.1;;;;;;;;;;;;;-68
2023/06/30 23:37:44;;;;;;;;;;;;;;;17.72;67.52734;100743.4;;;;-69
2023/06/30 23:42:44;;;;;;;;;;;;;;;17.65;68.96191;100732.7;;;;-69
2023/06/30 23:47:44;;;;;;;;;;;;;;;17.62;68.95605;100726.2;;;;-68
2023/06/30 23:52:44;;;;;;;;;;;;;;;17.55;70.23047;100717.4;;;;-69
2023/06/30 23:57:44;;;;;;;;;;;;;;;17.54;70.12793;100716.9;;;;-68
